sensor_id;sensor_type;location;lat;lon;timestamp;P1;durP1;ratioP1;P2;durP2;ratioP2
23280;SDS011;11809;56.390;-3.266;2022-12-16T00:01:04;3.78;;;2.50;;
23280;SDS011;11809;56.390;-3.266;2022-12-16T00:03:49;4.22;;;2.78;;
23280;SDS011;11809;56.390;-3.266;2022-12-16T00:06:20;3.47;;;2.80;;
23280;SDS011;11809;56.390;-3.266;2022-12-16T00:08:49;3.50;;;2.75;;
23280;SDS011;11809;56.390;-3.266;2022-12-16T00:11:17;3.63;;;2.78;;
23280;SDS011;11809;56.390;-3.266;2022-12-16T00:13:45;3.90;;;2.47;;
23280;SDS011;11809;56.390;-3.266;2022-12-16T00:16:13;4.68;;;2.42;;
23280;SDS011;11809;56.390;-3.266;2022-12-16T00:18:42;3.13;;;2.65;;
23280;SDS011;11809;56.390;-3.266;2022-12-16T00:21:10;3.88;;;2.80;;
23280;SDS011;11809;56.390;-3.266;2022-12-16T00:23:38;2.60;;;2.40;;
23280;SDS011;11809;56.390;-3.266;2022-12-16T00:26:07;3.53;;;2.33;;
23280;SDS011;11809;56.390;-3.266;2022-12-16T00:28:34;3.35;;;2.38;;
23280;SDS011;11809;56.390;-3.266;2022-12-16T00:31:02;3.22;;;2.42;;
23280;SDS011;11809;56.390;-3.266;2022-12-16T00:33:30;3.08;;;2.40;;
23280;SDS011;11809;56.390;-3.266;2022-12-16T00:35:59;3.30;;;2.50;;
23280;SDS011;11809;56.390;-3.266;2022-12-16T00:38:26;2.60;;;2.25;;
23280;SDS011;11809;56.390;-3.266;2022-12-16T00:40:53;3.03;;;2.30;;
23280;SDS011;11809;56.390;-3.266;2022-12-16T00:43:20;2.65;;;2.45;;
23280;SDS011;11809;56.390;-3.266;2022-12-16T00:45:48;2.58;;;2.20;;
23280;SDS011;11809;56.390;-3.266;2022-12-16T00:48:17;3.08;;;2.40;;
23280;SDS011;11809;56.390;-3.266;2022-12-16T00:50:49;3.47;;;2.42;;
23280;SDS011;11809;56.390;-3.266;2022-12-16T00:53:20;2.47;;;2.10;;
23280;SDS011;11809;56.390;-3.266;2022-12-16T00:55:48;3.60;;;2.25;;
23280;SDS011;11809;56.390;-3.266;2022-12-16T00:58:17;3.50;;;2.28;;
23280;SDS011;11809;56.390;-3.266;2022-12-16T01:00:44;2.90;;;2.10;;
23280;SDS011;11809;56.390;-3.266;2022-12-16T01:03:11;2.78;;;2.40;;
23280;SDS011;11809;56.390;-3.266;2022-12-16T01:05:46;3.15;;;2.20;;
23280;SDS011;11809;56.390;-3.266;2022-12-16T01:08:13;3.45;;;2.30;;
23280;SDS011;11809;56.390;-3.266;2022-12-16T01:10:40;2.45;;;2.03;;
23280;SDS011;11809;56.390;-3.266;2022-12-16T01:13:07;3.55;;;2.25;;
23280;SDS011;11809;56.390;-3.266;2022-12-16T01:15:35;3.13;;;2.30;;
23280;SDS011;11809;56.390;-3.266;2022-12-16T01:18:03;2.45;;;2.25;;
23280;SDS011;11809;56.390;-3.266;2022-12-16T01:20:31;3.30;;;2.67;;
23280;SDS011;11809;56.390;-3.266;2022-12-16T01:22:58;2.75;;;2.28;;
23280;SDS011;11809;56.390;-3.266;2022-12-16T01:25:26;3.83;;;2.55;;
23280;SDS011;11809;56.390;-3.266;2022-12-16T01:27:53;4.07;;;2.70;;
23280;SDS011;11809;56.390;-3.266;2022-12-16T01:30:20;3.45;;;2.60;;
23280;SDS011;11809;56.390;-3.266;2022-12-16T01:32:47;3.60;;;2.60;;
23280;SDS011;11809;56.390;-3.266;2022-12-16T01:35:15;3.65;;;2.63;;
23280;SDS011;11809;56.390;-3.266;2022-12-16T01:38:03;3.10;;;2.40;;
23280;SDS011;11809;56.390;-3.266;2022-12-16T01:40:30;3.30;;;2.50;;
23280;SDS011;11809;56.390;-3.266;2022-12-16T01:42:57;2.78;;;2.30;;
23280;SDS011;11809;56.390;-3.266;2022-12-16T01:47:51;3.00;;;2.55;;
23280;SDS011;11809;56.390;-3.266;2022-12-16T01:50:22;3.25;;;2.60;;
23280;SDS011;11809;56.390;-3.266;2022-12-16T01:52:50;3.35;;;2.58;;
23280;SDS011;11809;56.390;-3.266;2022-12-16T01:55:27;2.95;;;2.40;;
23280;SDS011;11809;56.390;-3.266;2022-12-16T01:58:01;2.85;;;2.25;;
23280;SDS011;11809;56.390;-3.266;2022-12-16T02:00:31;3.10;;;2.40;;
23280;SDS011;11809;56.390;-3.266;2022-12-16T02:02:58;5.05;;;2.30;;
23280;SDS011;11809;56.390;-3.266;2022-12-16T02:05:26;3.20;;;2.20;;
23280;SDS011;11809;56.390;-3.266;2022-12-16T02:10:57;2.92;;;2.50;;
23280;SDS011;11809;56.390;-3.266;2022-12-16T02:16:35;3.00;;;2.28;;
23280;SDS011;11809;56.390;-3.266;2022-12-16T02:19:22;3.05;;;2.33;;
23280;SDS011;11809;56.390;-3.266;2022-12-16T02:30:46;2.38;;;2.10;;
23280;SDS011;11809;56.390;-3.266;2022-12-16T02:41:52;3.00;;;2.40;;
23280;SDS011;11809;56.390;-3.266;2022-12-16T02:44:24;2.97;;;2.42;;
23280;SDS011;11809;56.390;-3.266;2022-12-16T02:47:01;3.17;;;2.20;;
23280;SDS011;11809;56.390;-3.266;2022-12-16T02:51:56;3.70;;;2.30;;
23280;SDS011;11809;56.390;-3.266;2022-12-16T02:54:25;2.42;;;1.98;;
23280;SDS011;11809;56.390;-3.266;2022-12-16T03:02:21;2.75;;;2.22;;
23280;SDS011;11809;56.390;-3.266;2022-12-16T03:04:59;4.07;;;2.25;;
23280;SDS011;11809;56.390;-3.266;2022-12-16T03:07:37;3.85;;;2.30;;
23280;SDS011;11809;56.390;-3.266;2022-12-16T03:10:07;2.53;;;2.33;;
23280;SDS011;11809;56.390;-3.266;2022-12-16T03:12:37;3.20;;;2.13;;
23280;SDS011;11809;56.390;-3.266;2022-12-16T03:15:07;2.35;;;1.90;;
23280;SDS011;11809;56.390;-3.266;2022-12-16T03:17:37;2.03;;;1.88;;
23280;SDS011;11809;56.390;-3.266;2022-12-16T03:20:11;2.42;;;1.95;;
23280;SDS011;11809;56.390;-3.266;2022-12-16T03:22:43;1.90;;;1.65;;
23280;SDS011;11809;56.390;-3.266;2022-12-16T03:25:13;2.65;;;2.10;;
23280;SDS011;11809;56.390;-3.266;2022-12-16T03:27:52;2.75;;;2.10;;
23280;SDS011;11809;56.390;-3.266;2022-12-16T03:30:25;2.40;;;1.80;;
23280;SDS011;11809;56.390;-3.266;2022-12-16T03:38:10;3.13;;;1.95;;
23280;SDS011;11809;56.390;-3.266;2022-12-16T03:40:40;2.30;;;2.00;;
23280;SDS011;11809;56.390;-3.266;2022-12-16T03:43:09;2.78;;;1.90;;
23280;SDS011;11809;56.390;-3.266;2022-12-16T03:45:42;2.70;;;1.63;;
23280;SDS011;11809;56.390;-3.266;2022-12-16T03:48:12;3.05;;;2.22;;
23280;SDS011;11809;56.390;-3.266;2022-12-16T03:50:41;3.33;;;1.70;;
23280;SDS011;11809;56.390;-3.266;2022-12-16T03:53:08;1.90;;;1.60;;
23280;SDS011;11809;56.390;-3.266;2022-12-16T03:55:35;2.40;;;1.70;;
23280;SDS011;11809;56.390;-3.266;2022-12-16T03:58:02;2.40;;;1.80;;
23280;SDS011;11809;56.390;-3.266;2022-12-16T04:00:29;2.03;;;1.73;;
23280;SDS011;11809;56.390;-3.266;2022-12-16T04:02:56;2.22;;;1.63;;
23280;SDS011;11809;56.390;-3.266;2022-12-16T04:05:23;1.70;;;1.60;;
23280;SDS011;11809;56.390;-3.266;2022-12-16T04:07:51;1.90;;;1.70;;
23280;SDS011;11809;56.390;-3.266;2022-12-16T04:10:22;2.30;;;2.03;;
23280;SDS011;11809;56.390;-3.266;2022-12-16T04:13:09;2.00;;;1.80;;
23280;SDS011;11809;56.390;-3.266;2022-12-16T04:15:55;2.35;;;2.08;;
23280;SDS011;11809;56.390;-3.266;2022-12-16T04:18:41;3.42;;;1.95;;
23280;SDS011;11809;56.390;-3.266;2022-12-16T04:21:27;2.50;;;2.15;;
23280;SDS011;11809;56.390;-3.266;2022-12-16T04:24:14;1.90;;;1.63;;
23280;SDS011;11809;56.390;-3.266;2022-12-16T04:26:46;2.60;;;1.95;;
23280;SDS011;11809;56.390;-3.266;2022-12-16T04:29:40;2.10;;;1.60;;
23280;SDS011;11809;56.390;-3.266;2022-12-16T04:32:25;3.72;;;2.00;;
23280;SDS011;11809;56.390;-3.266;2022-12-16T04:34:52;2.20;;;1.83;;
23280;SDS011;11809;56.390;-3.266;2022-12-16T04:37:19;2.53;;;1.92;;
23280;SDS011;11809;56.390;-3.266;2022-12-16T04:40:05;3.28;;;2.10;;
23280;SDS011;11809;56.390;-3.266;2022-12-16T04:42:51;3.85;;;1.83;;
23280;SDS011;11809;56.390;-3.266;2022-12-16T04:45:37;2.05;;;1.73;;
23280;SDS011;11809;56.390;-3.266;2022-12-16T04:48:23;1.63;;;1.52;;
23280;SDS011;11809;56.390;-3.266;2022-12-16T04:51:09;2.17;;;1.88;;
23280;SDS011;11809;56.390;-3.266;2022-12-16T04:53:54;2.88;;;1.98;;
23280;SDS011;11809;56.390;-3.266;2022-12-16T04:56:40;1.98;;;1.50;;
23280;SDS011;11809;56.390;-3.266;2022-12-16T04:59:25;1.60;;;1.50;;
23280;SDS011;11809;56.390;-3.266;2022-12-16T05:02:11;1.52;;;1.40;;
23280;SDS011;11809;56.390;-3.266;2022-12-16T05:04:57;1.80;;;1.52;;
23280;SDS011;11809;56.390;-3.266;2022-12-16T05:07:42;1.55;;;1.45;;
23280;SDS011;11809;56.390;-3.266;2022-12-16T05:10:28;2.88;;;1.75;;
23280;SDS011;11809;56.390;-3.266;2022-12-16T05:13:13;1.88;;;1.67;;
23280;SDS011;11809;56.390;-3.266;2022-12-16T05:16:00;1.63;;;1.52;;
23280;SDS011;11809;56.390;-3.266;2022-12-16T05:18:45;1.60;;;1.40;;
23280;SDS011;11809;56.390;-3.266;2022-12-16T05:21:31;2.00;;;1.27;;
23280;SDS011;11809;56.390;-3.266;2022-12-16T05:24:16;2.05;;;1.80;;
23280;SDS011;11809;56.390;-3.266;2022-12-16T05:27:19;1.98;;;1.63;;
23280;SDS011;11809;56.390;-3.266;2022-12-16T05:30:05;1.92;;;1.45;;
23280;SDS011;11809;56.390;-3.266;2022-12-16T05:32:58;1.67;;;1.38;;
23280;SDS011;11809;56.390;-3.266;2022-12-16T05:35:44;1.80;;;1.40;;
23280;SDS011;11809;56.390;-3.266;2022-12-16T05:38:29;2.00;;;1.48;;
23280;SDS011;11809;56.390;-3.266;2022-12-16T05:41:15;2.72;;;1.73;;
23280;SDS011;11809;56.390;-3.266;2022-12-16T05:44:00;1.50;;;1.40;;
23280;SDS011;11809;56.390;-3.266;2022-12-16T05:46:46;1.60;;;1.50;;
23280;SDS011;11809;56.390;-3.266;2022-12-16T05:49:32;2.42;;;1.70;;
23280;SDS011;11809;56.390;-3.266;2022-12-16T05:52:17;2.67;;;1.73;;
23280;SDS011;11809;56.390;-3.266;2022-12-16T05:55:03;1.95;;;1.63;;
23280;SDS011;11809;56.390;-3.266;2022-12-16T05:57:54;1.85;;;1.67;;
23280;SDS011;11809;56.390;-3.266;2022-12-16T06:00:39;3.80;;;1.80;;
23280;SDS011;11809;56.390;-3.266;2022-12-16T06:03:25;2.55;;;1.50;;
23280;SDS011;11809;56.390;-3.266;2022-12-16T06:06:11;3.65;;;1.77;;
23280;SDS011;11809;56.390;-3.266;2022-12-16T06:08:56;2.53;;;1.65;;
23280;SDS011;11809;56.390;-3.266;2022-12-16T06:11:42;2.15;;;1.63;;
23280;SDS011;11809;56.390;-3.266;2022-12-16T06:14:28;3.47;;;1.75;;
23280;SDS011;11809;56.390;-3.266;2022-12-16T06:17:14;6.75;;;2.17;;
23280;SDS011;11809;56.390;-3.266;2022-12-16T06:19:59;6.43;;;2.10;;
23280;SDS011;11809;56.390;-3.266;2022-12-16T06:22:51;3.22;;;1.98;;
23280;SDS011;11809;56.390;-3.266;2022-12-16T06:25:37;3.47;;;1.65;;
23280;SDS011;11809;56.390;-3.266;2022-12-16T06:28:23;6.95;;;1.65;;
23280;SDS011;11809;56.390;-3.266;2022-12-16T06:31:11;2.85;;;1.88;;
23280;SDS011;11809;56.390;-3.266;2022-12-16T06:33:57;3.85;;;1.70;;
23280;SDS011;11809;56.390;-3.266;2022-12-16T06:36:43;3.50;;;1.48;;
23280;SDS011;11809;56.390;-3.266;2022-12-16T06:39:29;3.53;;;1.50;;
23280;SDS011;11809;56.390;-3.266;2022-12-16T06:42:18;2.35;;;1.75;;
23280;SDS011;11809;56.390;-3.266;2022-12-16T06:45:04;2.47;;;1.75;;
23280;SDS011;11809;56.390;-3.266;2022-12-16T06:47:56;2.13;;;1.50;;
23280;SDS011;11809;56.390;-3.266;2022-12-16T06:50:42;1.70;;;1.50;;
23280;SDS011;11809;56.390;-3.266;2022-12-16T06:53:28;2.58;;;1.50;;
23280;SDS011;11809;56.390;-3.266;2022-12-16T06:56:13;2.63;;;1.65;;
23280;SDS011;11809;56.390;-3.266;2022-12-16T06:58:59;7.25;;;2.00;;
23280;SDS011;11809;56.390;-3.266;2022-12-16T07:01:45;5.28;;;1.85;;
23280;SDS011;11809;56.390;-3.266;2022-12-16T07:04:31;4.57;;;1.90;;
23280;SDS011;11809;56.390;-3.266;2022-12-16T07:07:16;7.30;;;2.05;;
23280;SDS011;11809;56.390;-3.266;2022-12-16T07:10:02;4.10;;;2.20;;
23280;SDS011;11809;56.390;-3.266;2022-12-16T07:12:48;3.30;;;1.90;;
23280;SDS011;11809;56.390;-3.266;2022-12-16T07:15:34;7.55;;;1.80;;
23280;SDS011;11809;56.390;-3.266;2022-12-16T07:18:19;2.65;;;1.65;;
23280;SDS011;11809;56.390;-3.266;2022-12-16T07:21:05;4.40;;;1.73;;
23280;SDS011;11809;56.390;-3.266;2022-12-16T07:23:51;2.53;;;1.50;;
23280;SDS011;11809;56.390;-3.266;2022-12-16T07:26:36;1.70;;;1.60;;
23280;SDS011;11809;56.390;-3.266;2022-12-16T07:29:22;6.35;;;2.05;;
23280;SDS011;11809;56.390;-3.266;2022-12-16T07:32:08;10.32;;;2.25;;
23280;SDS011;11809;56.390;-3.266;2022-12-16T07:34:53;7.32;;;2.33;;
23280;SDS011;11809;56.390;-3.266;2022-12-16T07:37:39;6.80;;;1.95;;
23280;SDS011;11809;56.390;-3.266;2022-12-16T07:40:25;4.10;;;1.70;;
23280;SDS011;11809;56.390;-3.266;2022-12-16T07:43:10;5.00;;;1.90;;
23280;SDS011;11809;56.390;-3.266;2022-12-16T07:45:57;5.53;;;1.58;;
23280;SDS011;11809;56.390;-3.266;2022-12-16T07:48:43;13.02;;;2.67;;
23280;SDS011;11809;56.390;-3.266;2022-12-16T07:51:28;5.95;;;2.38;;
23280;SDS011;11809;56.390;-3.266;2022-12-16T07:54:14;4.25;;;2.00;;
23280;SDS011;11809;56.390;-3.266;2022-12-16T07:56:59;5.80;;;1.95;;
23280;SDS011;11809;56.390;-3.266;2022-12-16T07:59:45;4.38;;;1.92;;
23280;SDS011;11809;56.390;-3.266;2022-12-16T08:02:31;4.45;;;2.03;;
23280;SDS011;11809;56.390;-3.266;2022-12-16T08:05:17;11.18;;;1.85;;
23280;SDS011;11809;56.390;-3.266;2022-12-16T08:08:03;9.18;;;2.13;;
23280;SDS011;11809;56.390;-3.266;2022-12-16T08:10:48;7.95;;;2.20;;
23280;SDS011;11809;56.390;-3.266;2022-12-16T08:13:34;8.90;;;2.50;;
23280;SDS011;11809;56.390;-3.266;2022-12-16T08:16:20;9.98;;;2.22;;
23280;SDS011;11809;56.390;-3.266;2022-12-16T08:19:06;6.07;;;1.88;;
23280;SDS011;11809;56.390;-3.266;2022-12-16T08:21:51;3.38;;;2.08;;
23280;SDS011;11809;56.390;-3.266;2022-12-16T08:24:37;6.82;;;2.20;;
23280;SDS011;11809;56.390;-3.266;2022-12-16T08:27:33;7.05;;;2.00;;
23280;SDS011;11809;56.390;-3.266;2022-12-16T08:30:21;4.70;;;1.55;;
23280;SDS011;11809;56.390;-3.266;2022-12-16T08:33:06;3.15;;;1.95;;
23280;SDS011;11809;56.390;-3.266;2022-12-16T08:35:53;4.22;;;1.60;;
23280;SDS011;11809;56.390;-3.266;2022-12-16T08:38:42;4.40;;;2.00;;
23280;SDS011;11809;56.390;-3.266;2022-12-16T08:41:28;3.30;;;1.70;;
23280;SDS011;11809;56.390;-3.266;2022-12-16T08:44:14;6.57;;;1.80;;
23280;SDS011;11809;56.390;-3.266;2022-12-16T08:46:59;3.50;;;1.55;;
23280;SDS011;11809;56.390;-3.266;2022-12-16T08:49:45;2.30;;;1.42;;
23280;SDS011;11809;56.390;-3.266;2022-12-16T08:52:31;4.88;;;1.70;;
23280;SDS011;11809;56.390;-3.266;2022-12-16T08:55:16;3.92;;;1.77;;
23280;SDS011;11809;56.390;-3.266;2022-12-16T08:58:02;2.80;;;1.88;;
23280;SDS011;11809;56.390;-3.266;2022-12-16T09:00:48;3.70;;;1.77;;
23280;SDS011;11809;56.390;-3.266;2022-12-16T09:03:34;7.70;;;2.28;;
23280;SDS011;11809;56.390;-3.266;2022-12-16T09:06:21;4.07;;;1.90;;
23280;SDS011;11809;56.390;-3.266;2022-12-16T09:09:08;7.00;;;2.20;;
23280;SDS011;11809;56.390;-3.266;2022-12-16T09:11:54;8.98;;;2.05;;
23280;SDS011;11809;56.390;-3.266;2022-12-16T09:14:40;7.03;;;1.70;;
23280;SDS011;11809;56.390;-3.266;2022-12-16T09:17:25;3.92;;;1.73;;
23280;SDS011;11809;56.390;-3.266;2022-12-16T09:20:11;2.92;;;1.77;;
23280;SDS011;11809;56.390;-3.266;2022-12-16T09:23:00;3.92;;;1.80;;
23280;SDS011;11809;56.390;-3.266;2022-12-16T09:25:46;7.95;;;2.15;;
23280;SDS011;11809;56.390;-3.266;2022-12-16T09:28:32;4.78;;;1.75;;
23280;SDS011;11809;56.390;-3.266;2022-12-16T09:31:19;3.22;;;1.95;;
23280;SDS011;11809;56.390;-3.266;2022-12-16T09:34:05;4.60;;;2.50;;
23280;SDS011;11809;56.390;-3.266;2022-12-16T09:36:51;6.50;;;2.10;;
23280;SDS011;11809;56.390;-3.266;2022-12-16T09:39:36;3.08;;;2.05;;
23280;SDS011;11809;56.390;-3.266;2022-12-16T09:51:35;2.95;;;2.47;;
23280;SDS011;11809;56.390;-3.266;2022-12-16T09:54:23;2.92;;;2.10;;
23280;SDS011;11809;56.390;-3.266;2022-12-16T09:57:13;2.67;;;2.20;;
23280;SDS011;11809;56.390;-3.266;2022-12-16T10:00:01;3.03;;;2.13;;
23280;SDS011;11809;56.390;-3.266;2022-12-16T10:02:49;2.38;;;1.90;;
23280;SDS011;11809;56.390;-3.266;2022-12-16T10:05:47;2.45;;;1.60;;
23280;SDS011;11809;56.390;-3.266;2022-12-16T10:08:48;3.75;;;1.60;;
23280;SDS011;11809;56.390;-3.266;2022-12-16T10:11:42;2.15;;;1.85;;
23280;SDS011;11809;56.390;-3.266;2022-12-16T10:15:11;3.13;;;1.92;;
23280;SDS011;11809;56.390;-3.266;2022-12-16T10:17:59;2.78;;;1.80;;
23280;SDS011;11809;56.390;-3.266;2022-12-16T10:20:50;3.53;;;1.70;;
23280;SDS011;11809;56.390;-3.266;2022-12-16T10:29:29;3.15;;;1.55;;
23280;SDS011;11809;56.390;-3.266;2022-12-16T10:32:19;2.35;;;1.60;;
23280;SDS011;11809;56.390;-3.266;2022-12-16T10:35:22;2.60;;;1.60;;
23280;SDS011;11809;56.390;-3.266;2022-12-16T10:38:17;1.70;;;1.60;;
23280;SDS011;11809;56.390;-3.266;2022-12-16T10:41:20;1.92;;;1.50;;
23280;SDS011;11809;56.390;-3.266;2022-12-16T10:44:15;1.55;;;1.40;;
23280;SDS011;11809;56.390;-3.266;2022-12-16T10:47:22;1.95;;;1.40;;
23280;SDS011;11809;56.390;-3.266;2022-12-16T10:50:11;2.45;;;1.60;;
23280;SDS011;11809;56.390;-3.266;2022-12-16T10:53:00;2.05;;;1.58;;
23280;SDS011;11809;56.390;-3.266;2022-12-16T10:55:53;2.17;;;1.50;;
23280;SDS011;11809;56.390;-3.266;2022-12-16T10:58:48;3.42;;;1.65;;
23280;SDS011;11809;56.390;-3.266;2022-12-16T11:01:37;2.33;;;1.67;;
23280;SDS011;11809;56.390;-3.266;2022-12-16T11:04:27;3.63;;;1.60;;
23280;SDS011;11809;56.390;-3.266;2022-12-16T11:07:49;2.67;;;1.60;;
23280;SDS011;11809;56.390;-3.266;2022-12-16T11:10:31;2.30;;;1.55;;
23280;SDS011;11809;56.390;-3.266;2022-12-16T11:13:25;2.53;;;1.90;;
23280;SDS011;11809;56.390;-3.266;2022-12-16T11:16:18;2.78;;;1.75;;
23280;SDS011;11809;56.390;-3.266;2022-12-16T11:19:28;2.17;;;1.88;;
23280;SDS011;11809;56.390;-3.266;2022-12-16T11:22:18;3.05;;;1.90;;
23280;SDS011;11809;56.390;-3.266;2022-12-16T11:25:17;4.97;;;2.20;;
23280;SDS011;11809;56.390;-3.266;2022-12-16T11:28:04;2.35;;;1.83;;
23280;SDS011;11809;56.390;-3.266;2022-12-16T11:30:53;2.55;;;1.60;;
23280;SDS011;11809;56.390;-3.266;2022-12-16T11:33:42;1.70;;;1.50;;
23280;SDS011;11809;56.390;-3.266;2022-12-16T11:36:29;2.35;;;1.85;;
23280;SDS011;11809;56.390;-3.266;2022-12-16T11:39:20;2.72;;;1.90;;
23280;SDS011;11809;56.390;-3.266;2022-12-16T11:42:09;2.25;;;1.58;;
23280;SDS011;11809;56.390;-3.266;2022-12-16T11:45:02;2.05;;;1.50;;
23280;SDS011;11809;56.390;-3.266;2022-12-16T11:47:52;1.80;;;1.55;;
23280;SDS011;11809;56.390;-3.266;2022-12-16T11:50:41;2.10;;;1.43;;
23280;SDS011;11809;56.390;-3.266;2022-12-16T11:56:37;2.17;;;1.58;;
23280;SDS011;11809;56.390;-3.266;2022-12-16T11:59:31;3.35;;;1.63;;
23280;SDS011;11809;56.390;-3.266;2022-12-16T12:02:36;2.67;;;1.70;;
23280;SDS011;11809;56.390;-3.266;2022-12-16T12:09:21;1.98;;;1.73;;
23280;SDS011;11809;56.390;-3.266;2022-12-16T12:12:20;2.20;;;1.40;;
23280;SDS011;11809;56.390;-3.266;2022-12-16T12:15:29;2.83;;;1.40;;
23280;SDS011;11809;56.390;-3.266;2022-12-16T12:21:38;1.75;;;1.40;;
23280;SDS011;11809;56.390;-3.266;2022-12-16T12:24:52;1.70;;;1.52;;
23280;SDS011;11809;56.390;-3.266;2022-12-16T12:31:13;1.48;;;1.38;;
23280;SDS011;11809;56.390;-3.266;2022-12-16T12:34:38;1.90;;;1.50;;
23280;SDS011;11809;56.390;-3.266;2022-12-16T12:37:29;2.25;;;1.38;;
23280;SDS011;11809;56.390;-3.266;2022-12-16T12:40:25;2.53;;;1.70;;
23280;SDS011;11809;56.390;-3.266;2022-12-16T12:43:56;3.20;;;2.00;;
23280;SDS011;11809;56.390;-3.266;2022-12-16T12:47:14;4.03;;;2.10;;
23280;SDS011;11809;56.390;-3.266;2022-12-16T12:58:58;4.32;;;2.10;;
23280;SDS011;11809;56.390;-3.266;2022-12-16T13:04:35;6.32;;;2.50;;
23280;SDS011;11809;56.390;-3.266;2022-12-16T13:07:23;5.68;;;2.05;;
23280;SDS011;11809;56.390;-3.266;2022-12-16T13:16:03;2.42;;;1.58;;
23280;SDS011;11809;56.390;-3.266;2022-12-16T13:22:28;7.40;;;1.60;;
23280;SDS011;11809;56.390;-3.266;2022-12-16T13:28:23;3.90;;;1.90;;
23280;SDS011;11809;56.390;-3.266;2022-12-16T13:31:10;2.40;;;1.48;;
23280;SDS011;11809;56.390;-3.266;2022-12-16T13:33:58;3.13;;;1.60;;
23280;SDS011;11809;56.390;-3.266;2022-12-16T13:36:53;11.48;;;1.80;;
23280;SDS011;11809;56.390;-3.266;2022-12-16T13:40:04;3.28;;;1.73;;
23280;SDS011;11809;56.390;-3.266;2022-12-16T13:42:58;1.50;;;1.30;;
23280;SDS011;11809;56.390;-3.266;2022-12-16T13:48:45;8.52;;;2.47;;
23280;SDS011;11809;56.390;-3.266;2022-12-16T13:54:27;3.90;;;1.50;;
23280;SDS011;11809;56.390;-3.266;2022-12-16T13:57:19;4.15;;;1.40;;
23280;SDS011;11809;56.390;-3.266;2022-12-16T14:00:23;3.65;;;1.77;;
23280;SDS011;11809;56.390;-3.266;2022-12-16T14:03:17;8.73;;;1.50;;
23280;SDS011;11809;56.390;-3.266;2022-12-16T14:06:16;6.10;;;1.40;;
23280;SDS011;11809;56.390;-3.266;2022-12-16T14:09:26;4.43;;;1.50;;
23280;SDS011;11809;56.390;-3.266;2022-12-16T14:22:21;1.38;;;0.85;;
23280;SDS011;11809;56.390;-3.266;2022-12-16T14:25:19;3.00;;;1.17;;
23280;SDS011;11809;56.390;-3.266;2022-12-16T14:31:11;2.65;;;1.23;;
23280;SDS011;11809;56.390;-3.266;2022-12-16T14:34:39;8.73;;;1.17;;
23280;SDS011;11809;56.390;-3.266;2022-12-16T14:37:33;5.20;;;1.58;;
23280;SDS011;11809;56.390;-3.266;2022-12-16T14:40:28;1.65;;;1.15;;
23280;SDS011;11809;56.390;-3.266;2022-12-16T14:43:19;1.67;;;1.00;;
23280;SDS011;11809;56.390;-3.266;2022-12-16T14:46:27;4.53;;;1.20;;
23280;SDS011;11809;56.390;-3.266;2022-12-16T14:49:22;5.53;;;1.20;;
23280;SDS011;11809;56.390;-3.266;2022-12-16T14:55:17;4.20;;;1.23;;
23280;SDS011;11809;56.390;-3.266;2022-12-16T14:58:20;3.90;;;1.00;;
23280;SDS011;11809;56.390;-3.266;2022-12-16T15:01:19;2.53;;;0.90;;
23280;SDS011;11809;56.390;-3.266;2022-12-16T15:04:12;6.18;;;1.33;;
23280;SDS011;11809;56.390;-3.266;2022-12-16T15:07:05;5.55;;;1.20;;
23280;SDS011;11809;56.390;-3.266;2022-12-16T15:09:57;5.28;;;1.40;;
23280;SDS011;11809;56.390;-3.266;2022-12-16T15:12:45;6.97;;;1.27;;
23280;SDS011;11809;56.390;-3.266;2022-12-16T15:15:34;3.22;;;1.30;;
23280;SDS011;11809;56.390;-3.266;2022-12-16T15:18:28;6.38;;;1.50;;
23280;SDS011;11809;56.390;-3.266;2022-12-16T15:21:26;6.60;;;1.50;;
23280;SDS011;11809;56.390;-3.266;2022-12-16T15:24:15;3.92;;;1.85;;
23280;SDS011;11809;56.390;-3.266;2022-12-16T15:27:21;3.75;;;1.58;;
23280;SDS011;11809;56.390;-3.266;2022-12-16T15:33:37;9.10;;;1.65;;
23280;SDS011;11809;56.390;-3.266;2022-12-16T15:36:29;12.73;;;3.17;;
23280;SDS011;11809;56.390;-3.266;2022-12-16T15:39:28;14.57;;;3.05;;
23280;SDS011;11809;56.390;-3.266;2022-12-16T15:42:31;3.58;;;1.83;;
23280;SDS011;11809;56.390;-3.266;2022-12-16T15:45:28;5.00;;;2.58;;
23280;SDS011;11809;56.390;-3.266;2022-12-16T15:51:30;7.70;;;2.60;;
23280;SDS011;11809;56.390;-3.266;2022-12-16T15:54:30;6.45;;;2.58;;
23280;SDS011;11809;56.390;-3.266;2022-12-16T16:00:27;4.57;;;2.50;;
23280;SDS011;11809;56.390;-3.266;2022-12-16T16:03:47;6.50;;;2.40;;
23280;SDS011;11809;56.390;-3.266;2022-12-16T16:06:49;2.22;;;1.73;;
23280;SDS011;11809;56.390;-3.266;2022-12-16T16:09:38;3.65;;;1.83;;
23280;SDS011;11809;56.390;-3.266;2022-12-16T16:12:27;6.50;;;1.90;;
23280;SDS011;11809;56.390;-3.266;2022-12-16T16:15:13;3.22;;;2.05;;
23280;SDS011;11809;56.390;-3.266;2022-12-16T16:18:22;5.15;;;1.80;;
23280;SDS011;11809;56.390;-3.266;2022-12-16T16:21:09;4.32;;;2.08;;
23280;SDS011;11809;56.390;-3.266;2022-12-16T16:23:58;5.55;;;1.85;;
23280;SDS011;11809;56.390;-3.266;2022-12-16T16:26:49;2.08;;;1.77;;
23280;SDS011;11809;56.390;-3.266;2022-12-16T16:29:46;2.83;;;2.05;;
23280;SDS011;11809;56.390;-3.266;2022-12-16T16:32:37;2.28;;;1.85;;
23280;SDS011;11809;56.390;-3.266;2022-12-16T16:35:24;4.75;;;1.90;;
23280;SDS011;11809;56.390;-3.266;2022-12-16T16:38:13;4.55;;;2.08;;
23280;SDS011;11809;56.390;-3.266;2022-12-16T16:40:59;5.15;;;1.70;;
23280;SDS011;11809;56.390;-3.266;2022-12-16T16:43:45;7.95;;;2.00;;
23280;SDS011;11809;56.390;-3.266;2022-12-16T16:49:29;7.72;;;2.10;;
23280;SDS011;11809;56.390;-3.266;2022-12-16T16:52:18;26.77;;;3.58;;
23280;SDS011;11809;56.390;-3.266;2022-12-16T16:58:45;12.80;;;2.85;;
23280;SDS011;11809;56.390;-3.266;2022-12-16T17:01:16;14.68;;;1.85;;
23280;SDS011;11809;56.390;-3.266;2022-12-16T17:04:04;5.97;;;1.80;;
23280;SDS011;11809;56.390;-3.266;2022-12-16T17:06:58;12.18;;;2.38;;
23280;SDS011;11809;56.390;-3.266;2022-12-16T17:09:49;12.25;;;2.25;;
23280;SDS011;11809;56.390;-3.266;2022-12-16T17:12:40;9.02;;;2.03;;
23280;SDS011;11809;56.390;-3.266;2022-12-16T17:18:18;3.35;;;1.88;;
23280;SDS011;11809;56.390;-3.266;2022-12-16T17:21:12;10.77;;;3.35;;
23280;SDS011;11809;56.390;-3.266;2022-12-16T17:23:58;19.90;;;4.85;;
23280;SDS011;11809;56.390;-3.266;2022-12-16T17:26:44;12.25;;;4.57;;
23280;SDS011;11809;56.390;-3.266;2022-12-16T17:29:30;23.88;;;5.68;;
23280;SDS011;11809;56.390;-3.266;2022-12-16T17:32:18;29.05;;;10.70;;
23280;SDS011;11809;56.390;-3.266;2022-12-16T17:35:04;19.67;;;6.43;;
23280;SDS011;11809;56.390;-3.266;2022-12-16T17:37:50;16.10;;;6.15;;
23280;SDS011;11809;56.390;-3.266;2022-12-16T17:40:36;22.30;;;8.10;;
23280;SDS011;11809;56.390;-3.266;2022-12-16T17:43:23;17.38;;;8.15;;
23280;SDS011;11809;56.390;-3.266;2022-12-16T17:46:10;14.27;;;7.47;;
23280;SDS011;11809;56.390;-3.266;2022-12-16T17:48:58;16.23;;;7.60;;
23280;SDS011;11809;56.390;-3.266;2022-12-16T17:51:44;12.73;;;6.93;;
23280;SDS011;11809;56.390;-3.266;2022-12-16T17:54:30;13.48;;;6.93;;
23280;SDS011;11809;56.390;-3.266;2022-12-16T17:57:16;12.65;;;6.82;;
23280;SDS011;11809;56.390;-3.266;2022-12-16T18:00:02;12.90;;;6.55;;
23280;SDS011;11809;56.390;-3.266;2022-12-16T18:02:49;13.45;;;7.05;;
23280;SDS011;11809;56.390;-3.266;2022-12-16T18:05:45;12.23;;;6.22;;
23280;SDS011;11809;56.390;-3.266;2022-12-16T18:08:31;10.13;;;5.78;;
23280;SDS011;11809;56.390;-3.266;2022-12-16T18:11:17;10.13;;;4.60;;
23280;SDS011;11809;56.390;-3.266;2022-12-16T18:14:04;12.40;;;4.40;;
23280;SDS011;11809;56.390;-3.266;2022-12-16T18:16:55;18.48;;;3.97;;
23280;SDS011;11809;56.390;-3.266;2022-12-16T18:19:41;8.27;;;3.50;;
23280;SDS011;11809;56.390;-3.266;2022-12-16T18:22:28;11.35;;;2.80;;
23280;SDS011;11809;56.390;-3.266;2022-12-16T18:25:14;9.60;;;3.35;;
23280;SDS011;11809;56.390;-3.266;2022-12-16T18:28:00;7.95;;;2.60;;
23280;SDS011;11809;56.390;-3.266;2022-12-16T18:30:46;8.13;;;2.55;;
23280;SDS011;11809;56.390;-3.266;2022-12-16T18:33:32;9.93;;;2.75;;